Time;durP1;ratioP1;P1;durP2;ratioP2;P2;SDS_P1;SDS_P2;PMS_P1;PMS_P2;Temp;Humidity;BMP_temperature;BMP_pressure;BME280_temperature;BME280_humidity;BME280_pressure;Samples;Min_cycle;Max_cycle;Signal;HPM_P1;HPM_P2
2022/12/31 00:01:38;;;;;;;8.70;0.93;;;12.20;57.00;;;;;;5052503;28;46464;-64
2022/12/31 00:04:04;;;;;;;1.20;0.70;;;12.20;56.90;;;;;;5050203;28;46448;-64
2022/12/31 00:06:32;;;;;;;3.07;1.00;;;12.30;56.60;;;;;;5049386;28;46354;-65
2022/12/31 00:09:00;;;;;;;1.60;0.80;;;12.20;56.40;;;;;;5052027;28;46514;-65
2022/12/31 00:11:28;;;;;;;1.70;0.70;;;12.10;56.50;;;;;;5047147;28;46360;-66
2022/12/31 00:13:55;;;;;;;1.80;0.80;;;12.00;55.90;;;;;;5045995;28;46848;-65
2022/12/31 00:16:27;;;;;;;1.30;0.70;;;12.00;56.90;;;;;;5049463;28;46396;-64
2022/12/31 00:18:55;;;;;;;1.83;0.70;;;11.90;56.70;;;;;;5049809;28;46533;-65
2022/12/31 00:21:21;;;;;;;2.27;0.80;;;12.10;56.60;;;;;;5043581;28;46626;-65
2022/12/31 00:23:47;;;;;;;2.00;1.00;;;12.00;56.30;;;;;;5048498;28;46420;-65
2022/12/31 00:26:23;;;;;;;1.60;0.80;;;12.00;56.40;;;;;;5046403;28;46404;-65
2022/12/31 00:28:50;;;;;;;1.53;0.80;;;12.00;56.20;;;;;;5048709;28;46450;-65
2022/12/31 00:31:27;;;;;;;2.07;0.87;;;12.00;56.30;;;;;;5052590;28;46638;-65
2022/12/31 00:33:53;;;;;;;1.60;0.80;;;11.90;56.30;;;;;;5051444;28;46089;-65
2022/12/31 00:36:24;;;;;;;1.60;0.70;;;11.90;56.50;;;;;;5046826;28;46451;-65
2022/12/31 00:38:51;;;;;;;1.50;0.80;;;11.90;56.40;;;;;;5049570;28;46531;-65
2022/12/31 00:41:19;;;;;;;5.20;1.10;;;11.90;56.30;;;;;;5047468;28;46579;-66
2022/12/31 00:43:45;;;;;;;2.10;1.10;;;11.90;56.30;;;;;;5046868;28;47272;-65
2022/12/31 00:46:12;;;;;;;1.93;0.70;;;12.00;56.30;;;;;;5049390;28;46723;-65
2022/12/31 00:48:38;;;;;;;1.93;0.80;;;12.00;56.40;;;;;;5047049;28;46428;-65
2022/12/31 00:51:06;;;;;;;1.83;0.80;;;11.90;56.40;;;;;;5046871;28;46542;-65
2022/12/31 00:53:33;;;;;;;1.40;0.73;;;11.90;56.40;;;;;;5045459;28;46444;-65
2022/12/31 00:56:00;;;;;;;1.57;0.77;;;11.90;56.40;;;;;;5047706;28;46921;-65
2022/12/31 00:58:27;;;;;;;1.40;0.80;;;11.90;56.50;;;;;;5047889;28;46877;-65
2022/12/31 01:00:52;;;;;;;1.40;0.80;;;11.90;56.50;;;;;;5047193;28;46588;-65
2022/12/31 01:03:19;;;;;;;1.80;0.70;;;11.90;56.50;;;;;;5046332;28;46610;-65
2022/12/31 01:05:44;;;;;;;1.40;0.70;;;11.90;56.70;;;;;;5045334;28;45892;-65
2022/12/31 01:08:10;;;;;;;1.87;0.80;;;11.90;56.70;;;;;;5048735;28;46468;-65
2022/12/31 01:13:20;;;;;;;2.07;0.70;;;11.80;56.60;;;;;;5047663;28;46628;-65
2022/12/31 01:15:46;;;;;;;1.37;0.70;;;11.90;56.80;;;;;;5047112;28;46463;-65
2022/12/31 01:18:12;;;;;;;2.73;0.80;;;11.90;56.80;;;;;;5048646;28;46388;-65
2022/12/31 01:20:40;;;;;;;1.60;0.77;;;11.80;56.70;;;;;;5045367;28;46195;-65
2022/12/31 01:23:07;;;;;;;1.40;0.60;;;11.80;56.80;;;;;;5047769;28;46574;-65
2022/12/31 01:25:38;;;;;;;1.40;0.70;;;11.80;56.90;;;;;;5042723;28;46348;-65
2022/12/31 01:28:04;;;;;;;1.43;0.77;;;11.80;56.80;;;;;;5046808;28;46487;-65
2022/12/31 01:30:30;;;;;;;4.43;0.90;;;11.80;56.60;;;;;;5047108;28;46384;-65
2022/12/31 01:32:56;;;;;;;1.50;0.80;;;12.00;56.50;;;;;;5047381;28;46408;-65
2022/12/31 01:35:22;;;;;;;1.40;0.77;;;12.00;56.40;;;;;;5048469;28;46316;-65
2022/12/31 01:37:48;;;;;;;1.40;0.80;;;12.00;56.30;;;;;;5047900;28;46746;-65
2022/12/31 01:40:13;;;;;;;2.70;0.80;;;12.00;56.30;;;;;;5045528;28;46313;-64
2022/12/31 01:42:39;;;;;;;1.53;0.67;;;11.90;56.10;;;;;;5045841;28;46622;-64
2022/12/31 01:45:10;;;;;;;5.13;0.83;;;11.90;56.30;;;;;;5045102;28;46511;-65
2022/12/31 01:47:42;;;;;;;1.40;0.80;;;12.00;57.60;;;;;;5048553;28;46466;-64
2022/12/31 01:50:23;;;;;;;2.10;0.80;;;11.90;56.40;;;;;;5046807;28;46397;-65
2022/12/31 01:52:55;;;;;;;1.50;0.67;;;11.90;56.30;;;;;;5047523;28;46627;-65
2022/12/31 01:55:57;;;;;;;1.70;0.60;;;11.90;56.20;;;;;;5044887;28;45962;-64
2022/12/31 01:58:28;;;;;;;1.67;0.60;;;11.90;56.30;;;;;;5004950;28;46499;-65
2022/12/31 02:00:56;;;;;;;1.20;0.70;;;11.90;56.40;;;;;;5040525;28;46543;-65
2022/12/31 02:03:23;;;;;;;1.27;0.70;;;11.80;56.50;;;;;;5047144;28;46615;-65
2022/12/31 02:06:04;;;;;;;2.77;0.80;;;11.80;56.60;;;;;;5044878;28;45998;-65
2022/12/31 02:08:30;;;;;;;1.47;0.77;;;11.90;56.50;;;;;;5044035;28;46422;-65
2022/12/31 02:10:56;;;;;;;1.60;0.83;;;11.90;56.20;;;;;;5048191;28;46455;-65
2022/12/31 02:13:22;;;;;;;1.23;0.67;;;12.00;56.00;;;;;;5045767;28;47616;-65
2022/12/31 02:16:07;;;;;;;3.80;0.73;;;12.10;55.70;;;;;;5045456;28;45929;-65
2022/12/31 02:18:46;;;;;;;1.30;0.70;;;12.20;55.50;;;;;;5046793;28;46400;-65
2022/12/31 02:21:49;;;;;;;1.37;0.70;;;12.30;55.10;;;;;;5044221;28;46457;-65
2022/12/31 02:24:30;;;;;;;2.50;0.80;;;12.40;54.70;;;;;;4990641;28;46225;-64
2022/12/31 02:26:58;;;;;;;1.30;0.60;;;12.50;54.40;;;;;;5048503;28;46434;-64
2022/12/31 02:29:58;;;;;;;2.40;0.67;;;12.50;54.50;;;;;;5043838;28;46657;-65
2022/12/31 02:32:29;;;;;;;1.30;0.70;;;12.50;54.30;;;;;;5048244;28;46402;-65
2022/12/31 02:35:11;;;;;;;1.80;0.70;;;12.50;54.10;;;;;;5047083;28;47269;-64
2022/12/31 02:37:40;;;;;;;1.40;0.60;;;12.60;54.00;;;;;;5048325;28;46411;-65
2022/12/31 02:40:10;;;;;;;1.70;0.70;;;12.70;54.10;;;;;;5047232;28;46513;-65
2022/12/31 02:42:36;;;;;;;1.33;0.70;;;12.80;54.20;;;;;;5043016;28;46429;-64
2022/12/31 02:45:01;;;;;;;1.50;0.70;;;12.90;54.30;;;;;;5046342;28;46403;-65
2022/12/31 02:47:50;;;;;;;2.80;0.70;;;13.00;54.00;;;;;;5029884;28;46369;-64
2022/12/31 02:50:32;;;;;;;2.17;0.70;;;13.10;53.60;;;;;;5047909;28;46524;-65
2022/12/31 02:53:13;;;;;;;1.30;0.60;;;13.20;53.50;;;;;;5045270;28;46449;-65
2022/12/31 02:55:55;;;;;;;2.50;0.90;;;13.20;53.30;;;;;;5046691;28;46349;-65
2022/12/31 03:04:33;;;;;;;1.43;0.70;;;13.20;53.20;;;;;;5047208;28;46439;-65
2022/12/31 03:07:27;;;;;;;1.50;0.70;;;13.10;53.60;;;;;;5045513;28;47618;-65
2022/12/31 03:09:53;;;;;;;1.47;0.77;;;12.90;54.30;;;;;;5045137;28;46500;-65
2022/12/31 03:15:18;;;;;;;1.93;0.77;;;13.00;53.80;;;;;;5045119;28;46372;-65
2022/12/31 03:17:57;;;;;;;1.83;0.70;;;13.00;54.80;;;;;;5048789;28;47177;-64
2022/12/31 03:23:23;;;;;;;7.63;0.90;;;13.20;53.20;;;;;;5048324;28;46431;-65
2022/12/31 03:25:48;;;;;;;2.23;0.70;;;13.30;52.80;;;;;;5048687;28;46676;-65
2022/12/31 03:28:17;;;;;;;1.40;0.70;;;13.30;52.40;;;;;;5046859;28;46491;-64
2022/12/31 03:30:47;;;;;;;1.30;0.70;;;13.40;52.30;;;;;;5050431;28;46352;-65
2022/12/31 03:33:13;;;;;;;3.10;0.70;;;13.30;52.20;;;;;;5047990;28;46188;-65
2022/12/31 03:35:40;;;;;;;1.40;0.70;;;13.30;52.40;;;;;;5053472;28;46360;-65
2022/12/31 03:38:06;;;;;;;1.30;0.60;;;13.20;52.60;;;;;;5050524;28;46699;-65
2022/12/31 03:40:37;;;;;;;1.40;0.70;;;13.20;52.70;;;;;;5049167;28;46413;-65
2022/12/31 03:43:03;;;;;;;1.50;0.80;;;13.20;52.20;;;;;;5046458;28;46550;-65
2022/12/31 03:45:29;;;;;;;1.30;0.60;;;13.40;51.70;;;;;;5049452;28;46596;-64
2022/12/31 03:47:55;;;;;;;1.40;0.60;;;13.50;51.20;;;;;;5053648;28;47140;-65
2022/12/31 03:50:20;;;;;;;2.47;0.80;;;13.70;51.00;;;;;;5052653;28;45845;-64
2022/12/31 03:52:46;;;;;;;1.47;0.70;;;13.60;50.80;;;;;;5049130;28;46522;-65
2022/12/31 03:55:13;;;;;;;1.50;0.70;;;13.70;50.70;;;;;;5050918;28;46600;-65
2022/12/31 03:57:38;;;;;;;1.30;0.60;;;13.70;50.50;;;;;;5048093;28;46317;-65
2022/12/31 04:00:06;;;;;;;3.10;0.80;;;13.70;50.30;;;;;;5050693;28;46372;-65
2022/12/31 04:02:32;;;;;;;1.60;0.70;;;13.80;50.00;;;;;;5048524;28;45843;-65
2022/12/31 04:04:57;;;;;;;1.40;0.77;;;13.80;49.90;;;;;;5049668;28;46316;-65
2022/12/31 04:07:23;;;;;;;1.40;0.60;;;13.80;49.80;;;;;;5050384;28;47101;-65
2022/12/31 04:09:49;;;;;;;1.50;0.70;;;13.80;49.60;;;;;;5049171;28;46447;-65
2022/12/31 04:12:14;;;;;;;1.30;0.60;;;13.80;49.50;;;;;;5050193;28;46489;-65
2022/12/31 04:14:40;;;;;;;1.60;0.70;;;13.80;49.40;;;;;;5050172;28;46691;-65
2022/12/31 04:17:05;;;;;;;2.43;0.60;;;13.90;49.30;;;;;;5050391;28;46457;-65
2022/12/31 04:19:31;;;;;;;1.67;0.70;;;13.80;49.10;;;;;;5046986;28;46508;-64
2022/12/31 04:21:57;;;;;;;2.43;0.70;;;13.80;49.10;;;;;;5049146;28;45926;-65
2022/12/31 04:24:23;;;;;;;2.13;0.70;;;13.80;49.20;;;;;;5048856;28;46395;-65
2022/12/31 04:26:49;;;;;;;1.43;0.70;;;13.80;48.90;;;;;;5047896;28;45990;-65
2022/12/31 04:29:14;;;;;;;1.83;0.70;;;13.80;48.80;;;;;;5050421;28;46400;-65
2022/12/31 04:31:40;;;;;;;2.90;0.70;;;13.80;48.80;;;;;;5049094;28;46343;-65
2022/12/31 04:34:05;;;;;;;1.40;0.70;;;13.90;48.60;;;;;;5047554;28;46385;-65
2022/12/31 04:36:31;;;;;;;1.40;0.60;;;13.90;48.50;;;;;;5049984;28;47191;-65
2022/12/31 04:38:57;;;;;;;1.80;0.80;;;13.90;48.50;;;;;;5047341;28;46586;-65
2022/12/31 04:41:25;;;;;;;1.40;0.70;;;13.90;48.30;;;;;;5047882;28;46419;-64
2022/12/31 04:43:54;;;;;;;1.50;0.70;;;13.90;48.30;;;;;;5046445;28;46647;-64
2022/12/31 04:46:31;;;;;;;2.10;0.80;;;13.90;48.30;;;;;;5048643;28;47273;-64
2022/12/31 04:48:57;;;;;;;1.60;0.70;;;14.00;48.20;;;;;;5049353;28;46385;-64
2022/12/31 04:51:25;;;;;;;1.47;0.70;;;14.00;48.20;;;;;;5048974;28;46459;-64
2022/12/31 04:53:51;;;;;;;1.50;0.70;;;14.00;48.20;;;;;;5049979;28;46352;-65
2022/12/31 04:56:17;;;;;;;1.50;0.67;;;14.00;48.00;;;;;;5048215;28;46427;-64
2022/12/31 04:58:43;;;;;;;1.40;0.70;;;14.00;48.10;;;;;;5049643;28;46390;-64
2022/12/31 05:01:08;;;;;;;1.83;0.80;;;14.00;47.90;;;;;;5046708;28;46443;-64
2022/12/31 05:03:35;;;;;;;2.83;0.70;;;14.00;48.00;;;;;;5046953;28;46094;-64
2022/12/31 05:06:05;;;;;;;1.37;0.70;;;14.10;48.00;;;;;;5050621;28;47123;-65
2022/12/31 05:08:32;;;;;;;10.83;1.00;;;14.10;48.00;;;;;;5044851;28;46424;-65
2022/12/31 05:10:57;;;;;;;3.40;0.70;;;14.10;48.00;;;;;;5045108;28;46341;-65
2022/12/31 05:13:27;;;;;;;2.47;0.70;;;14.10;48.00;;;;;;5044759;28;45989;-65
2022/12/31 05:15:54;;;;;;;1.60;0.73;;;14.00;48.00;;;;;;5050105;28;46583;-65
2022/12/31 05:18:19;;;;;;;1.50;0.70;;;14.00;48.00;;;;;;5048369;28;45908;-65
2022/12/31 05:20:46;;;;;;;1.80;0.70;;;14.00;48.00;;;;;;5051683;28;46764;-65
2022/12/31 05:23:12;;;;;;;1.63;0.70;;;14.00;47.90;;;;;;5047288;28;46835;-65
2022/12/31 05:25:38;;;;;;;1.80;0.70;;;14.00;48.00;;;;;;5047362;28;46973;-65
2022/12/31 05:28:04;;;;;;;5.03;0.70;;;14.00;47.90;;;;;;5047285;28;46351;-65
2022/12/31 05:30:29;;;;;;;1.60;0.70;;;14.00;48.00;;;;;;5049652;28;46286;-65
2022/12/31 05:32:55;;;;;;;1.33;0.70;;;14.00;48.10;;;;;;5043028;28;46295;-65
2022/12/31 05:35:21;;;;;;;1.47;0.70;;;13.90;48.00;;;;;;5045200;28;47082;-65
2022/12/31 05:37:46;;;;;;;1.60;0.70;;;13.90;48.10;;;;;;5048689;28;46666;-65
2022/12/31 05:40:12;;;;;;;1.87;0.80;;;13.90;48.20;;;;;;5045130;28;45911;-65
2022/12/31 05:42:38;;;;;;;1.40;0.70;;;13.70;47.70;;;;;;5047651;28;46710;-65
2022/12/31 05:45:05;;;;;;;2.13;0.83;;;13.60;48.20;;;;;;5042820;28;47346;-65
2022/12/31 05:47:31;;;;;;;1.70;0.80;;;13.50;48.40;;;;;;5045485;28;46416;-65
2022/12/31 05:49:56;;;;;;;2.53;0.70;;;13.50;48.60;;;;;;5043075;28;46803;-64
2022/12/31 05:52:22;;;;;;;2.13;0.80;;;13.50;48.60;;;;;;5045804;28;46359;-65
2022/12/31 05:54:47;;;;;;;1.70;0.60;;;13.40;48.50;;;;;;5043649;28;46486;-65
2022/12/31 05:57:13;;;;;;;4.70;0.80;;;13.50;48.80;;;;;;5048161;28;45840;-64
2022/12/31 05:59:39;;;;;;;1.30;0.60;;;13.50;48.40;;;;;;5046886;28;46082;-64
2022/12/31 06:02:04;;;;;;;1.60;0.70;;;13.50;48.20;;;;;;5045832;28;46369;-64
2022/12/31 06:04:30;;;;;;;1.40;0.60;;;13.60;48.20;;;;;;5045645;28;46399;-65
2022/12/31 06:06:56;;;;;;;2.10;0.70;;;13.60;48.20;;;;;;5046043;28;46427;-64
2022/12/31 06:09:22;;;;;;;3.33;0.73;;;13.60;48.20;;;;;;5047853;28;46246;-64
2022/12/31 06:11:48;;;;;;;1.20;0.60;;;13.60;48.10;;;;;;5046045;28;46470;-64
2022/12/31 06:14:14;;;;;;;1.30;0.67;;;13.60;48.00;;;;;;5044043;28;46727;-65
2022/12/31 06:16:40;;;;;;;1.73;0.70;;;13.60;48.00;;;;;;5047378;28;46447;-65
2022/12/31 06:19:06;;;;;;;2.17;0.70;;;13.60;47.90;;;;;;5047110;28;46484;-64
2022/12/31 06:21:32;;;;;;;1.33;0.60;;;13.60;47.90;;;;;;5045423;28;46576;-64
2022/12/31 06:23:58;;;;;;;2.00;0.70;;;13.60;47.80;;;;;;5043774;28;46755;-64
2022/12/31 06:26:25;;;;;;;1.37;0.67;;;13.60;47.90;;;;;;5048608;28;46298;-65
2022/12/31 06:28:50;;;;;;;1.30;0.70;;;13.50;47.90;;;;;;5047357;28;46555;-64
2022/12/31 06:31:16;;;;;;;2.37;0.80;;;13.50;48.20;;;;;;5046126;28;46499;-64
2022/12/31 06:33:42;;;;;;;1.40;0.70;;;13.40;48.40;;;;;;5042254;28;45902;-64
2022/12/31 06:36:11;;;;;;;5.57;0.90;;;13.30;48.60;;;;;;5050333;28;46357;-64
2022/12/31 06:38:38;;;;;;;1.50;0.70;;;13.20;48.80;;;;;;5043945;28;45901;-64
2022/12/31 06:41:05;;;;;;;1.73;0.77;;;13.20;49.00;;;;;;5047371;28;46654;-64
2022/12/31 06:43:30;;;;;;;1.90;0.73;;;13.10;49.10;;;;;;5043544;28;47316;-64
2022/12/31 06:46:00;;;;;;;2.37;0.83;;;13.00;49.10;;;;;;5042918;28;46404;-64
2022/12/31 06:48:25;;;;;;;2.33;0.93;;;12.90;49.40;;;;;;5042920;28;46574;-64
2022/12/31 06:50:51;;;;;;;1.47;0.80;;;12.80;49.50;;;;;;5043512;28;46500;-64
2022/12/31 06:53:17;;;;;;;2.23;1.03;;;12.70;49.70;;;;;;5039837;28;46357;-64
2022/12/31 06:55:47;;;;;;;1.70;0.80;;;12.60;50.00;;;;;;5049817;28;46514;-64
2022/12/31 06:58:15;;;;;;;1.63;0.80;;;12.50;50.10;;;;;;5044920;28;46451;-65
2022/12/31 07:01:10;;;;;;;1.97;1.00;;;12.50;50.10;;;;;;5043010;28;46465;-65
2022/12/31 07:03:47;;;;;;;4.00;1.00;;;12.60;50.00;;;;;;5044734;28;46690;-64
2022/12/31 07:06:26;;;;;;;2.50;1.10;;;12.50;49.90;;;;;;5044351;28;46545;-65
2022/12/31 07:09:08;;;;;;;2.60;1.10;;;12.50;50.30;;;;;;5045767;28;46334;-65
2022/12/31 07:12:05;;;;;;;2.83;1.20;;;12.50;50.50;;;;;;5041383;28;46885;-65
2022/12/31 07:14:44;;;;;;;1.73;0.80;;;12.50;50.80;;;;;;5045328;28;46911;-65
2022/12/31 07:17:37;;;;;;;3.83;0.97;;;12.50;52.20;;;;;;5044195;28;46372;-65
2022/12/31 07:20:05;;;;;;;12.80;7.07;;;12.50;50.70;;;;;;5044392;28;46302;-65
2022/12/31 07:22:32;;;;;;;10.10;3.67;;;12.50;50.70;;;;;;5036740;28;46381;-65
2022/12/31 07:24:58;;;;;;;5.23;2.83;;;12.50;50.40;;;;;;5039863;28;46863;-65
2022/12/31 07:27:49;;;;;;;3.33;1.60;;;12.60;50.20;;;;;;5043377;28;46394;-65
2022/12/31 07:30:37;;;;;;;2.20;1.20;;;12.70;50.00;;;;;;5046665;28;46616;-65
2022/12/31 07:33:12;;;;;;;1.77;1.00;;;12.70;49.80;;;;;;5041682;28;46476;-64
2022/12/31 07:35:50;;;;;;;3.33;1.43;;;12.70;49.60;;;;;;5047819;28;46448;-64
2022/12/31 07:38:31;;;;;;;4.37;2.70;;;12.80;49.70;;;;;;5045669;28;46590;-65
2022/12/31 07:41:16;;;;;;;11.30;5.43;;;12.80;49.40;;;;;;5045886;28;46944;-64
2022/12/31 07:44:00;;;;;;;6.43;3.80;;;12.90;50.50;;;;;;5041466;28;46779;-64
2022/12/31 07:46:38;;;;;;;3.43;1.30;;;12.90;49.10;;;;;;5044897;28;46288;-65
2022/12/31 07:49:09;;;;;;;4.57;2.50;;;13.00;49.00;;;;;;5041884;28;46934;-64
2022/12/31 07:51:36;;;;;;;2.60;1.80;;;13.00;49.00;;;;;;5042167;28;46140;-64
2022/12/31 07:54:01;;;;;;;3.40;1.50;;;13.10;49.00;;;;;;5040410;28;46715;-64
2022/12/31 07:56:28;;;;;;;5.60;1.90;;;13.20;49.00;;;;;;5047924;28;46475;-66
2022/12/31 07:59:01;;;;;;;8.90;4.47;;;13.10;48.80;;;;;;5044987;28;46421;-66
2022/12/31 08:01:34;;;;;;;8.83;5.67;;;13.10;49.10;;;;;;5043148;28;46373;-65
2022/12/31 08:04:20;;;;;;;18.90;11.40;;;13.00;49.20;;;;;;5042478;28;46000;-66
2022/12/31 08:06:58;;;;;;;6.83;4.40;;;13.00;49.20;;;;;;5046464;28;46394;-65
2022/12/31 08:09:41;;;;;;;10.40;5.37;;;13.10;49.30;;;;;;5050484;28;45853;-66
2022/12/31 08:12:08;;;;;;;11.50;6.70;;;13.10;49.10;;;;;;5044129;28;46422;-65
2022/12/31 08:14:42;;;;;;;6.70;4.17;;;13.10;49.10;;;;;;5047595;28;46547;-66
2022/12/31 08:17:13;;;;;;;5.60;2.50;;;13.10;49.40;;;;;;5047566;28;47179;-66
2022/12/31 08:19:39;;;;;;;8.60;4.03;;;13.10;49.50;;;;;;5046740;28;46788;-66
2022/12/31 08:22:24;;;;;;;2.30;1.20;;;13.10;49.50;;;;;;5048312;28;46569;-64
2022/12/31 08:25:21;;;;;;;2.50;1.03;;;13.20;49.30;;;;;;5045913;28;46390;-65
2022/12/31 08:28:08;;;;;;;3.50;1.40;;;13.40;48.90;;;;;;5047782;28;46431;-65
2022/12/31 08:30:59;;;;;;;11.03;6.07;;;13.60;48.70;;;;;;5048154;28;46441;-65
2022/12/31 08:33:49;;;;;;;17.80;9.67;;;13.80;48.50;;;;;;5049497;28;46410;-65
2022/12/31 08:36:28;;;;;;;4.47;3.23;;;13.90;48.30;;;;;;5047707;28;46431;-65
2022/12/31 08:39:09;;;;;;;2.57;2.17;;;14.00;48.30;;;;;;5046677;28;46465;-66
2022/12/31 08:41:43;;;;;;;11.17;7.37;;;14.10;48.20;;;;;;5050136;28;46418;-65
2022/12/31 08:44:30;;;;;;;18.20;10.17;;;14.20;48.10;;;;;;5048459;28;46437;-65
2022/12/31 08:47:12;;;;;;;14.63;8.40;;;14.20;48.20;;;;;;5047370;28;46415;-65
2022/12/31 08:49:38;;;;;;;10.80;6.20;;;14.20;48.10;;;;;;5046941;28;48124;-65
2022/12/31 08:52:16;;;;;;;10.53;5.70;;;14.30;48.10;;;;;;5048209;28;46509;-65
2022/12/31 08:54:42;;;;;;;16.70;8.80;;;14.40;48.10;;;;;;5051164;28;46509;-66
2022/12/31 08:57:23;;;;;;;15.63;7.30;;;14.40;47.90;;;;;;5049745;28;46672;-65
2022/12/31 09:00:14;;;;;;;8.07;3.93;;;14.50;47.80;;;;;;5045597;28;47021;-66
2022/12/31 09:02:47;;;;;;;7.10;2.83;;;14.60;47.80;;;;;;5047788;28;46712;-66
2022/12/31 09:05:45;;;;;;;5.20;3.00;;;14.70;47.70;;;;;;5045862;28;46386;-65
2022/12/31 09:08:40;;;;;;;9.97;4.53;;;14.80;47.70;;;;;;5046656;28;45793;-66
2022/12/31 09:11:32;;;;;;;4.80;3.80;;;14.90;47.40;;;;;;5045407;28;46429;-65
2022/12/31 09:14:25;;;;;;;5.57;4.27;;;15.00;47.20;;;;;;5047434;28;46806;-66
2022/12/31 09:17:16;;;;;;;7.37;4.30;;;15.20;47.20;;;;;;5043729;28;46369;-65
2022/12/31 09:19:42;;;;;;;8.23;4.00;;;15.20;47.00;;;;;;5046495;28;45862;-65
2022/12/31 09:22:11;;;;;;;7.33;4.03;;;15.40;47.10;;;;;;5043864;28;46535;-64
2022/12/31 09:24:37;;;;;;;21.63;10.80;;;15.40;46.60;;;;;;5043840;28;46380;-65
2022/12/31 09:27:09;;;;;;;27.13;13.40;;;15.60;46.50;;;;;;5044626;28;46467;-65
2022/12/31 09:30:02;;;;;;;5.37;2.40;;;15.70;46.30;;;;;;5048462;28;46572;-65
2022/12/31 09:32:58;;;;;;;11.40;4.97;;;15.70;46.20;;;;;;5047521;28;46455;-65
2022/12/31 09:35:33;;;;;;;10.97;4.90;;;15.70;46.20;;;;;;5043900;28;46468;-66
2022/12/31 09:38:26;;;;;;;9.23;5.03;;;15.70;46.30;;;;;;5046130;28;46400;-65
2022/12/31 09:40:58;;;;;;;5.30;3.73;;;15.80;46.20;;;;;;5047132;28;46318;-65
2022/12/31 09:43:51;;;;;;;2.23;1.20;;;15.90;46.00;;;;;;5044040;28;46882;-65
2022/12/31 09:46:35;;;;;;;1.93;0.90;;;16.10;45.50;;;;;;5048764;28;46388;-66
2022/12/31 09:49:10;;;;;;;2.00;0.90;;;16.30;44.50;;;;;;5042220;28;45866;-65
2022/12/31 09:51:49;;;;;;;1.70;0.80;;;16.50;44.40;;;;;;5044393;28;46517;-67
2022/12/31 09:54:27;;;;;;;2.67;0.90;;;16.70;44.50;;;;;;5042449;28;47038;-66
2022/12/31 09:57:16;;;;;;;1.90;0.90;;;16.90;44.00;;;;;;5043317;28;46413;-65
2022/12/31 09:59:50;;;;;;;2.20;0.77;;;17.00;43.40;;;;;;5045657;28;46237;-67
2022/12/31 10:02:19;;;;;;;3.30;0.90;;;17.00;42.80;;;;;;5045769;28;46467;-66
2022/12/31 10:04:51;;;;;;;2.10;0.90;;;17.00;42.60;;;;;;5043861;28;46668;-66
2022/12/31 10:07:50;;;;;;;7.83;1.03;;;17.00;42.90;;;;;;5044452;28;46447;-66
2022/12/31 10:10:22;;;;;;;3.57;1.00;;;17.00;42.80;;;;;;5043686;28;46535;-65
2022/12/31 10:13:01;;;;;;;2.83;1.47;;;16.90;43.00;;;;;;5042864;28;46709;-65
2022/12/31 10:15:53;;;;;;;2.40;1.30;;;16.90;42.90;;;;;;5040223;28;46225;-64
2022/12/31 10:18:27;;;;;;;2.20;1.10;;;16.90;43.00;;;;;;5035986;28;46548;-65
2022/12/31 10:20:54;;;;;;;3.67;1.67;;;16.80;43.10;;;;;;5043810;28;46384;-65
2022/12/31 10:23:39;;;;;;;2.20;1.10;;;16.80;43.20;;;;;;5043571;28;46397;-65
2022/12/31 10:26:13;;;;;;;4.60;1.40;;;16.80;42.90;;;;;;5042838;28;47241;-65
2022/12/31 10:28:39;;;;;;;2.57;1.20;;;16.80;43.00;;;;;;5045939;28;46487;-64
2022/12/31 10:31:59;;;;;;;2.20;1.10;;;16.80;43.00;;;;;;5043359;28;46499;-65
2022/12/31 10:34:43;;;;;;;4.07;1.57;;;16.80;42.70;;;;;;5022708;28;46491;-65
2022/12/31 10:37:16;;;;;;;4.73;1.77;;;16.80;42.70;;;;;;5046121;28;46123;-65
2022/12/31 10:40:14;;;;;;;2.87;1.60;;;16.70;42.90;;;;;;5044037;28;46939;-64
2022/12/31 10:43:04;;;;;;;6.07;2.17;;;16.70;42.80;;;;;;5042925;28;46707;-66
2022/12/31 10:45:48;;;;;;;6.50;1.87;;;16.70;43.00;;;;;;5041828;28;46722;-65
2022/12/31 10:48:35;;;;;;;4.60;2.53;;;16.60;43.20;;;;;;5043678;28;46609;-66
2022/12/31 10:51:08;;;;;;;2.50;1.20;;;16.60;43.20;;;;;;5042561;28;47670;-65
2022/12/31 10:54:13;;;;;;;2.60;1.30;;;16.60;43.30;;;;;;5041265;28;46492;-66
2022/12/31 10:56:39;;;;;;;6.67;3.20;;;16.70;43.10;;;;;;5047329;28;46506;-65
2022/12/31 10:59:20;;;;;;;18.97;8.73;;;16.70;43.10;;;;;;5043250;28;46421;-65
2022/12/31 11:02:26;;;;;;;4.87;2.10;;;16.90;44.20;;;;;;5046013;28;46424;-64
2022/12/31 11:05:19;;;;;;;8.37;3.90;;;16.90;42.50;;;;;;5047249;28;46463;-64
2022/12/31 11:08:24;;;;;;;2.37;1.20;;;17.20;42.50;;;;;;5044094;28;46442;-64
2022/12/31 11:11:18;;;;;;;2.47;1.00;;;17.10;42.10;;;;;;5042941;28;46461;-64
2022/12/31 11:14:21;;;;;;;3.23;0.87;;;17.10;41.90;;;;;;5043905;28;46405;-64
2022/12/31 11:17:15;;;;;;;2.37;1.10;;;17.20;41.60;;;;;;5045167;28;46620;-64
2022/12/31 11:20:01;;;;;;;3.10;0.90;;;17.30;41.40;;;;;;5046245;28;46383;-64
2022/12/31 11:22:50;;;;;;;3.10;0.80;;;17.30;41.10;;;;;;5044639;28;46685;-65
2022/12/31 11:25:32;;;;;;;2.37;1.07;;;17.40;40.80;;;;;;5044075;28;46384;-64
2022/12/31 11:27:58;;;;;;;1.70;0.80;;;17.60;40.70;;;;;;5044425;28;46378;-64
2022/12/31 11:30:54;;;;;;;8.70;1.10;;;17.60;40.70;;;;;;5044761;28;45990;-64
2022/12/31 11:33:38;;;;;;;2.10;0.90;;;17.60;40.50;;;;;;5045361;28;46386;-64
2022/12/31 11:36:23;;;;;;;2.30;1.00;;;17.40;40.90;;;;;;5046506;28;46441;-65
2022/12/31 11:39:01;;;;;;;5.00;1.10;;;17.40;41.10;;;;;;5040202;28;46399;-63
2022/12/31 11:41:45;;;;;;;2.50;1.17;;;17.30;41.10;;;;;;5044629;28;46383;-64
2022/12/31 11:44:20;;;;;;;2.20;1.10;;;17.30;41.10;;;;;;5046325;28;47444;-65
2022/12/31 11:47:16;;;;;;;11.70;2.07;;;17.30;41.00;;;;;;5046176;28;46432;-64
2022/12/31 11:50:04;;;;;;;6.07;1.83;;;17.30;41.00;;;;;;5046735;28;46396;-64
2022/12/31 11:53:01;;;;;;;5.83;2.17;;;17.30;41.00;;;;;;5050149;28;47392;-64
2022/12/31 11:55:48;;;;;;;5.83;1.60;;;17.30;40.60;;;;;;5048547;28;46607;-64
2022/12/31 11:58:19;;;;;;;6.77;1.80;;;17.30;40.50;;;;;;5046595;28;46388;-64
2022/12/31 12:01:16;;;;;;;3.60;1.10;;;17.30;40.50;;;;;;5047708;28;45977;-64
2022/12/31 12:03:43;;;;;;;3.47;1.30;;;17.30;39.60;;;;;;5011623;28;46270;-65
2022/12/31 12:06:14;;;;;;;2.67;0.90;;;17.20;38.70;;;;;;5050195;28;46442;-65
2022/12/31 12:08:43;;;;;;;6.20;1.43;;;17.20;38.80;;;;;;5051988;28;46618;-65
2022/12/31 12:11:20;;;;;;;1.90;0.80;;;17.30;38.80;;;;;;5047163;28;46428;-65
2022/12/31 12:13:46;;;;;;;2.53;0.87;;;17.40;38.20;;;;;;5044817;28;46323;-65
2022/12/31 12:16:13;;;;;;;2.50;1.10;;;17.40;38.20;;;;;;5046308;28;47137;-64
2022/12/31 12:18:41;;;;;;;2.10;1.00;;;17.50;37.90;;;;;;5048887;28;46497;-64
2022/12/31 12:21:12;;;;;;;2.03;0.80;;;17.60;37.40;;;;;;5045565;28;46497;-65
2022/12/31 12:23:38;;;;;;;2.00;0.90;;;17.70;37.20;;;;;;5048349;28;46646;-64
2022/12/31 12:26:06;;;;;;;2.30;0.90;;;17.70;37.20;;;;;;5046100;28;47080;-64
2022/12/31 12:28:43;;;;;;;2.20;1.00;;;17.70;37.00;;;;;;5049749;28;46481;-64
2022/12/31 12:31:18;;;;;;;2.10;0.83;;;17.70;36.60;;;;;;5043589;28;46454;-64
2022/12/31 12:33:46;;;;;;;2.37;1.17;;;17.70;36.60;;;;;;5043843;28;46720;-66
2022/12/31 12:36:14;;;;;;;1.80;0.80;;;17.90;37.40;;;;;;5047576;28;47090;-62
2022/12/31 12:38:41;;;;;;;3.47;1.13;;;17.70;36.50;;;;;;5049703;28;46425;-66
2022/12/31 12:41:17;;;;;;;1.87;0.80;;;17.60;36.20;;;;;;5044625;28;46393;-64
2022/12/31 12:43:43;;;;;;;2.63;0.97;;;17.60;35.90;;;;;;5041809;28;46418;-63
2022/12/31 12:46:46;;;;;;;2.70;1.13;;;17.50;36.20;;;;;;5042961;28;46349;-63
2022/12/31 12:49:28;;;;;;;3.37;1.10;;;17.50;36.00;;;;;;5003376;28;46744;-63
2022/12/31 12:51:54;;;;;;;2.40;1.00;;;17.50;35.80;;;;;;5045280;28;46659;-63
2022/12/31 12:54:53;;;;;;;2.10;0.93;;;17.50;36.10;;;;;;5047567;28;46431;-63
2022/12/31 12:57:53;;;;;;;1.90;0.90;;;17.50;35.60;;;;;;5046265;28;47130;-65
2022/12/31 13:00:21;;;;;;;1.80;0.80;;;17.50;35.80;;;;;;5043211;28;46418;-64
2022/12/31 13:03:13;;;;;;;2.63;1.20;;;17.50;36.00;;;;;;5042027;28;46438;-64
2022/12/31 13:06:00;;;;;;;1.93;1.00;;;17.40;35.50;;;;;;5041610;28;46550;-64
2022/12/31 13:08:44;;;;;;;1.80;0.80;;;17.40;35.80;;;;;;5041922;28;47079;-64
2022/12/31 13:11:44;;;;;;;2.50;1.10;;;17.40;35.60;;;;;;5041857;28;46542;-64
2022/12/31 13:14:32;;;;;;;2.77;1.40;;;17.20;34.90;;;;;;5040675;28;45819;-64
2022/12/31 13:17:29;;;;;;;2.20;1.00;;;17.20;35.80;;;;;;5041306;28;46887;-63
2022/12/31 13:20:17;;;;;;;4.17;1.50;;;17.20;36.00;;;;;;5041391;28;46490;-64
2022/12/31 13:22:59;;;;;;;4.00;2.07;;;17.10;36.10;;;;;;5041269;28;46377;-65
2022/12/31 13:25:46;;;;;;;11.33;7.30;;;17.10;36.30;;;;;;5038588;28;46507;-65
2022/12/31 13:28:16;;;;;;;4.50;2.97;;;17.00;36.30;;;;;;5041953;28;46522;-64
2022/12/31 13:30:48;;;;;;;2.50;1.23;;;17.00;36.60;;;;;;5041612;28;47144;-67
2022/12/31 13:33:38;;;;;;;7.33;3.60;;;16.90;36.60;;;;;;5039976;28;45860;-65
2022/12/31 13:36:08;;;;;;;2.90;1.27;;;16.80;36.50;;;;;;5039880;28;46386;-66
2022/12/31 13:38:46;;;;;;;2.80;1.90;;;16.70;36.80;;;;;;5039666;28;46462;-66